createdAt,value
2022-09-02T00:02:24.784Z,12.80
2022-09-02T00:04:52.236Z,12.80
2022-09-02T00:07:20.964Z,12.66
2022-09-02T00:09:48.336Z,12.73
2022-09-02T00:12:16.438Z,12.65
2022-09-02T00:14:43.858Z,12.70
2022-09-02T00:17:11.345Z,12.68
2022-09-02T00:19:39.201Z,12.38
2022-09-02T00:22:06.750Z,12.55
2022-09-02T00:24:35.539Z,12.38
2022-09-02T00:27:03.400Z,12.34
2022-09-02T00:29:30.879Z,12.58
2022-09-02T00:31:58.930Z,12.46
2022-09-02T00:34:27.422Z,12.27
2022-09-02T00:36:54.845Z,11.99
2022-09-02T00:39:22.248Z,11.91
2022-09-02T00:41:51.475Z,11.69
2022-09-02T00:44:21.725Z,11.61
2022-09-02T00:46:50.396Z,11.71
2022-09-02T00:49:24.228Z,11.95
2022-09-02T00:51:55.557Z,12.05
2022-09-02T00:54:25.042Z,11.91
2022-09-02T00:56:56.167Z,12.06
2022-09-02T00:59:28.485Z,11.88
2022-09-02T01:01:56.242Z,11.76
2022-09-02T01:04:23.792Z,12.03
2022-09-02T01:06:52.189Z,11.93
2022-09-02T01:09:20.092Z,11.69
2022-09-02T01:11:52.688Z,11.56
2022-09-02T01:14:22.062Z,11.64
2022-09-02T01:16:51.681Z,11.84
2022-09-02T01:19:23.763Z,11.76
2022-09-02T01:21:53.825Z,11.44
2022-09-02T01:24:23.259Z,11.39
2022-09-02T01:26:53.517Z,11.52
2022-09-02T01:29:21.316Z,11.50
2022-09-02T01:31:49.051Z,11.42
2022-09-02T01:34:16.881Z,11.47
2022-09-02T01:36:45.031Z,11.52
2022-09-02T01:39:18.152Z,11.66
2022-09-02T01:41:45.895Z,11.46
2022-09-02T01:44:16.090Z,11.33
2022-09-02T01:46:43.554Z,11.31
2022-09-02T01:49:11.091Z,11.42
2022-09-02T01:51:38.687Z,11.18
2022-09-02T01:54:06.708Z,11.29
2022-09-02T01:56:35.828Z,11.47
2022-09-02T01:59:03.261Z,11.48
2022-09-02T02:01:31.487Z,11.18
2022-09-02T02:03:59.120Z,11.15
2022-09-02T02:06:26.635Z,10.99
2022-09-02T02:08:54.783Z,10.87
2022-09-02T02:11:23.968Z,11.18
2022-09-02T02:13:52.828Z,10.94
2022-09-02T02:16:20.264Z,11.02
2022-09-02T02:18:47.701Z,10.89
2022-09-02T02:21:15.158Z,10.66
2022-09-02T02:23:42.592Z,10.67
2022-09-02T02:26:10.289Z,10.66
2022-09-02T02:28:38.071Z,11.02
2022-09-02T02:31:07.656Z,10.74
2022-09-02T02:33:36.196Z,10.78
2022-09-02T02:36:05.378Z,10.91
2022-09-02T02:38:33.123Z,10.78
2022-09-02T02:41:01.913Z,11.04
2022-09-02T02:43:29.335Z,10.90
2022-09-02T02:45:56.767Z,10.86
2022-09-02T02:48:25.963Z,10.92
2022-09-02T02:50:54.091Z,10.80
2022-09-02T02:53:21.940Z,10.82
2022-09-02T02:55:50.049Z,10.84
2022-09-02T02:58:19.097Z,10.66
2022-09-02T03:00:46.581Z,10.85
2022-09-02T03:03:19.276Z,10.93
2022-09-02T03:05:48.428Z,10.78
2022-09-02T03:08:16.327Z,10.82
2022-09-02T03:10:44.620Z,10.69
2022-09-02T03:13:12.784Z,10.72
2022-09-02T03:15:43.066Z,10.71
2022-09-02T03:18:10.499Z,10.68
2022-09-02T03:20:37.899Z,10.72
2022-09-02T03:23:06.624Z,10.61
2022-09-02T03:25:35.993Z,10.72
2022-09-02T03:28:04.944Z,10.78
2022-09-02T03:30:34.187Z,10.70
2022-09-02T03:33:04.222Z,10.71
2022-09-02T03:35:32.899Z,10.56
2022-09-02T03:38:01.305Z,10.66
2022-09-02T03:40:30.563Z,10.56
2022-09-02T03:43:00.374Z,10.59
2022-09-02T03:45:28.600Z,10.66
2022-09-02T03:47:56.529Z,10.69
2022-09-02T03:50:27.620Z,10.79
2022-09-02T03:52:55.658Z,10.72
2022-09-02T03:55:24.377Z,10.68
2022-09-02T03:57:53.107Z,10.49
2022-09-02T04:00:25.135Z,10.41
2022-09-02T04:02:55.271Z,10.55
2022-09-02T04:05:23.801Z,10.53
2022-09-02T04:07:52.585Z,10.56
2022-09-02T04:10:21.900Z,10.54
2022-09-02T04:12:50.097Z,10.37
2022-09-02T04:15:19.798Z,10.21
2022-09-02T04:17:47.384Z,10.23
2022-09-02T04:20:16.132Z,10.35
2022-09-02T04:22:43.500Z,10.41
2022-09-02T04:25:11.507Z,10.22
2022-09-02T04:27:39.203Z,10.33
2022-09-02T04:30:08.985Z,10.34
2022-09-02T04:32:40.613Z,10.33
2022-09-02T04:35:09.023Z,10.58
2022-09-02T04:37:36.433Z,10.51
2022-09-02T04:40:04.451Z,10.49
2022-09-02T04:42:31.984Z,10.55
2022-09-02T04:44:59.384Z,10.55
2022-09-02T04:47:27.755Z,10.68
2022-09-02T04:49:56.481Z,10.71
2022-09-02T04:52:23.873Z,10.75
2022-09-02T04:54:51.628Z,10.75
2022-09-02T04:57:19.143Z,10.61
2022-09-02T04:59:46.669Z,10.69
2022-09-02T05:02:14.183Z,10.64
2022-09-02T05:04:41.688Z,10.70
2022-09-02T05:07:11.847Z,10.89
2022-09-02T05:09:42.813Z,10.98
2022-09-02T05:12:10.607Z,10.80
2022-09-02T05:14:38.346Z,10.82
2022-09-02T05:17:07.862Z,10.90
2022-09-02T05:19:38.868Z,11.06
2022-09-02T05:22:06.313Z,11.12
2022-09-02T05:24:35.016Z,11.30
2022-09-02T05:27:02.530Z,11.33
2022-09-02T05:29:29.941Z,11.43
2022-09-02T05:31:57.480Z,11.46
2022-09-02T05:34:25.116Z,11.37
2022-09-02T05:36:53.072Z,11.46
2022-09-02T05:39:20.464Z,11.46
2022-09-02T05:41:49.272Z,11.60
2022-09-02T05:44:16.654Z,11.65
2022-09-02T05:46:48.561Z,11.70
2022-09-02T05:49:18.195Z,11.95
2022-09-02T05:51:47.907Z,12.01
2022-09-02T05:54:18.085Z,12.09
2022-09-02T05:56:47.383Z,12.31
2022-09-02T05:59:16.968Z,12.31
2022-09-02T06:01:45.015Z,12.41
2022-09-02T06:04:12.515Z,12.55
2022-09-02T06:06:40.907Z,12.67
2022-09-02T06:09:10.456Z,12.75
2022-09-02T06:11:42.224Z,12.86
2022-09-02T06:14:09.676Z,12.98
2022-09-02T06:16:39.758Z,13.06
2022-09-02T06:19:07.926Z,13.19
2022-09-02T06:21:37.019Z,13.31
2022-09-02T06:24:05.996Z,13.49
2022-09-02T06:26:33.649Z,13.56
2022-09-02T06:29:01.100Z,13.71
2022-09-02T06:31:28.605Z,13.79
2022-09-02T06:34:04.631Z,13.79
2022-09-02T06:36:32.666Z,13.96
2022-09-02T06:39:01.510Z,14.07
2022-09-02T06:41:31.355Z,14.17
2022-09-02T06:44:01.204Z,14.32
2022-09-02T06:46:30.875Z,14.50
2022-09-02T06:48:58.551Z,14.60
2022-09-02T06:51:28.594Z,14.65
2022-09-02T06:53:56.079Z,14.74
2022-09-02T06:56:23.608Z,14.94
2022-09-02T06:58:51.431Z,15.12
2022-09-02T07:01:20.665Z,15.37
2022-09-02T07:04:05.397Z,15.51
2022-09-02T07:06:37.508Z,15.42
2022-09-02T07:09:05.463Z,15.58
2022-09-02T07:11:33.274Z,15.71
2022-09-02T07:14:01.783Z,15.85
2022-09-02T07:16:30.030Z,16.16
2022-09-02T07:19:01.111Z,16.25
2022-09-02T07:21:29.098Z,16.47
2022-09-02T07:23:59.518Z,16.54
2022-09-02T07:26:27.757Z,16.75
2022-09-02T07:28:55.830Z,16.88
2022-09-02T07:31:24.033Z,17.10
2022-09-02T07:33:51.523Z,17.19
2022-09-02T07:36:21.525Z,17.35
2022-09-02T07:38:49.556Z,17.50
2022-09-02T07:41:18.704Z,17.70
2022-09-02T07:43:49.617Z,17.79
2022-09-02T07:46:19.575Z,17.96
2022-09-02T07:48:50.111Z,18.08
2022-09-02T07:51:18.466Z,18.14
2022-09-02T07:53:46.380Z,18.21
2022-09-02T07:56:14.841Z,18.40
2022-09-02T07:58:44.365Z,18.48
2022-09-02T08:01:13.590Z,18.62
2022-09-02T08:03:44.271Z,18.91
2022-09-02T08:06:13.784Z,18.98
2022-09-02T08:08:41.299Z,19.13
2022-09-02T08:11:08.861Z,19.31
2022-09-02T08:13:37.972Z,19.23
2022-09-02T08:16:07.079Z,19.54
2022-09-02T08:18:34.956Z,19.67
2022-09-02T08:21:02.650Z,19.66
2022-09-02T08:23:37.825Z,19.67
2022-09-02T08:26:06.474Z,19.94
2022-09-02T08:28:34.029Z,19.96
2022-09-02T08:31:07.355Z,20.38
2022-09-02T08:33:34.966Z,20.30
2022-09-02T08:36:06.741Z,20.65
2022-09-02T08:38:34.167Z,20.83
2022-09-02T08:41:01.917Z,20.86
2022-09-02T08:43:37.306Z,20.95
2022-09-02T08:46:06.456Z,20.70
2022-09-02T08:48:40.440Z,21.20
2022-09-02T08:51:11.198Z,21.44
2022-09-02T08:53:46.985Z,21.33
2022-09-02T08:56:17.055Z,21.42
2022-09-02T08:58:47.475Z,21.40
2022-09-02T09:01:21.894Z,21.54
2022-09-02T09:04:14.834Z,21.18
2022-09-02T09:06:56.283Z,21.46
2022-09-02T09:09:33.573Z,21.59
2022-09-02T09:12:07.732Z,22.01
2022-09-02T09:14:38.239Z,22.20
2022-09-02T09:17:14.476Z,22.19
2022-09-02T09:19:49.526Z,22.65
2022-09-02T09:22:20.657Z,22.95
2022-09-02T09:24:50.567Z,23.13
2022-09-02T09:27:20.531Z,23.32
2022-09-02T09:29:49.276Z,22.86
2022-09-02T09:32:24.320Z,22.90
2022-09-02T09:35:06.871Z,23.02
2022-09-02T09:37:37.472Z,22.85
2022-09-02T09:40:31.465Z,22.99
2022-09-02T09:45:33.159Z,23.78
2022-09-02T09:48:14.829Z,24.15
2022-09-02T09:50:43.979Z,23.71
2022-09-02T09:53:21.584Z,23.61
2022-09-02T09:55:55.146Z,23.75
2022-09-02T09:58:24.831Z,23.62
2022-09-02T10:00:57.180Z,23.40
2022-09-02T10:03:27.620Z,22.87
2022-09-02T10:06:19.918Z,22.54
2022-09-02T10:08:53.589Z,22.42
2022-09-02T10:11:23.820Z,22.25
2022-09-02T10:13:51.602Z,22.35
2022-09-02T10:16:32.465Z,22.36
2022-09-02T10:19:12.071Z,22.23
2022-09-02T10:21:58.112Z,22.33
2022-09-02T10:24:45.357Z,22.09
2022-09-02T10:27:16.534Z,22.39
2022-09-02T10:29:55.736Z,22.27
2022-09-02T10:32:51.665Z,22.08
2022-09-02T10:35:26.007Z,21.97
2022-09-02T10:38:07.873Z,21.79
2022-09-02T10:40:42.484Z,21.80
2022-09-02T10:43:20.570Z,21.97
2022-09-02T10:45:50.837Z,22.05
2022-09-02T10:48:32.061Z,22.12
2022-09-02T10:51:05.751Z,21.99
2022-09-02T10:53:49.432Z,21.87
2022-09-02T10:56:21.442Z,21.95
2022-09-02T10:58:54.999Z,22.02
2022-09-02T11:01:27.655Z,21.97
2022-09-02T11:04:03.897Z,21.65
2022-09-02T11:06:58.661Z,21.83
2022-09-02T11:09:32.148Z,21.85
2022-09-02T11:12:06.553Z,22.28
2022-09-02T11:14:38.090Z,22.34
2022-09-02T11:17:13.438Z,22.24
2022-09-02T11:19:47.794Z,22.65
2022-09-02T11:22:27.336Z,22.34
2022-09-02T11:25:04.152Z,22.67
2022-09-02T11:27:42.464Z,22.54
2022-09-02T11:30:15.751Z,22.65
2022-09-02T11:32:50.440Z,22.69
2022-09-02T11:35:21.379Z,22.39
2022-09-02T11:37:53.390Z,22.03
2022-09-02T11:40:36.584Z,21.71
2022-09-02T11:43:15.667Z,21.11
2022-09-02T11:46:08.205Z,21.32
2022-09-02T11:49:00.049Z,21.36
2022-09-02T11:51:43.816Z,21.56
2022-09-02T11:54:15.570Z,21.48
2022-09-02T11:56:47.163Z,21.55
2022-09-02T11:59:22.136Z,21.84
2022-09-02T12:01:51.516Z,21.84
2022-09-02T12:07:26.825Z,21.99
2022-09-02T12:09:57.669Z,22.13
2022-09-02T12:13:08.103Z,22.20
2022-09-02T12:15:36.350Z,22.45
2022-09-02T12:18:12.556Z,22.36
2022-09-02T12:21:06.083Z,22.16
2022-09-02T12:24:12.435Z,22.23
2022-09-02T12:27:09.282Z,22.36
2022-09-02T12:29:38.054Z,22.56
2022-09-02T12:32:09.361Z,22.56
2022-09-02T12:35:10.088Z,22.48
2022-09-02T12:37:56.885Z,22.47
2022-09-02T12:40:32.265Z,22.61
2022-09-02T12:43:03.552Z,22.37
2022-09-02T12:45:35.001Z,22.66
2022-09-02T12:48:08.608Z,22.74
2022-09-02T12:50:53.784Z,22.76
2022-09-02T12:53:49.882Z,23.19
2022-09-02T12:56:23.131Z,22.90
2022-09-02T12:58:53.248Z,22.39
2022-09-02T13:01:30.917Z,22.28
2022-09-02T13:04:11.285Z,21.83
2022-09-02T13:07:00.314Z,21.97
2022-09-02T13:10:12.841Z,21.66
2022-09-02T13:13:15.217Z,21.64
2022-09-02T13:15:58.043Z,21.59
2022-09-02T13:18:58.492Z,21.52
2022-09-02T13:21:48.933Z,21.58
2022-09-02T13:24:46.590Z,21.39
2022-09-02T13:27:34.357Z,21.50
2022-09-02T13:30:21.952Z,21.71
2022-09-02T13:32:58.095Z,21.76
2022-09-02T13:35:28.884Z,21.81
2022-09-02T13:38:00.364Z,21.81
2022-09-02T13:40:30.128Z,21.69
2022-09-02T13:43:01.376Z,21.63
2022-09-02T13:45:34.390Z,21.60
2022-09-02T13:48:09.520Z,21.43
2022-09-02T13:50:43.205Z,21.44
2022-09-02T13:56:06.730Z,21.55
2022-09-02T13:58:38.085Z,21.51
2022-09-02T14:01:21.985Z,21.67
2022-09-02T14:03:51.721Z,21.81
2022-09-02T14:06:23.639Z,22.02
2022-09-02T14:08:53.646Z,22.04
2022-09-02T14:11:22.107Z,22.20
2022-09-02T14:13:51.208Z,22.15
2022-09-02T14:16:27.684Z,22.29
2022-09-02T14:19:10.557Z,22.63
2022-09-02T14:21:46.782Z,22.66
2022-09-02T14:24:16.537Z,22.53
2022-09-02T14:26:47.033Z,22.64
2022-09-02T14:29:16.842Z,22.93
2022-09-02T14:31:44.615Z,22.86
2022-09-02T14:34:35.625Z,22.85
2022-09-02T14:37:19.228Z,22.67
2022-09-02T14:40:08.250Z,22.34
2022-09-02T14:42:45.142Z,21.98
2022-09-02T14:45:13.704Z,22.12
2022-09-02T14:47:42.435Z,21.94
2022-09-02T14:50:12.559Z,21.87
2022-09-02T14:52:48.147Z,21.64
2022-09-02T14:55:52.369Z,21.61
2022-09-02T14:58:23.158Z,21.42
2022-09-02T15:00:56.166Z,21.37
2022-09-02T15:03:24.684Z,21.37
2022-09-02T15:05:53.763Z,21.33
2022-09-02T15:08:24.737Z,21.25
2022-09-02T15:10:54.156Z,21.16
2022-09-02T15:13:27.950Z,21.10
2022-09-02T15:15:56.757Z,20.99
2022-09-02T15:18:24.527Z,20.96
2022-09-02T15:20:52.575Z,21.06
2022-09-02T15:23:19.971Z,21.24
2022-09-02T15:25:49.112Z,21.37
2022-09-02T15:28:16.601Z,21.55
2022-09-02T15:30:44.324Z,21.70
2022-09-02T15:33:19.830Z,21.66
2022-09-02T15:35:47.680Z,21.82
2022-09-02T15:38:15.400Z,21.78
2022-09-02T15:40:43.540Z,21.76
2022-09-02T15:43:12.472Z,21.56
2022-09-02T15:45:45.985Z,21.48
2022-09-02T15:48:13.582Z,21.33
2022-09-02T15:50:41.149Z,21.34
2022-09-02T15:53:08.537Z,21.35
2022-09-02T15:55:35.984Z,21.25
2022-09-02T15:58:03.441Z,21.03
2022-09-02T16:00:34.959Z,20.99
2022-09-02T16:03:02.541Z,20.94
2022-09-02T16:05:30.572Z,20.83
2022-09-02T16:07:57.973Z,20.79
2022-09-02T16:10:25.379Z,20.76
2022-09-02T16:12:52.851Z,20.73
2022-09-02T16:15:20.856Z,20.57
2022-09-02T16:17:51.023Z,20.40
2022-09-02T16:20:21.232Z,20.44
2022-09-02T16:22:54.393Z,20.50
2022-09-02T16:25:22.471Z,20.36
2022-09-02T16:27:52.903Z,20.25
2022-09-02T16:30:21.417Z,20.17
2022-09-02T16:32:51.570Z,20.04
2022-09-02T16:35:19.003Z,20.03
2022-09-02T16:37:46.468Z,20.00
2022-09-02T16:40:21.092Z,20.03
2022-09-02T16:42:48.877Z,19.94
2022-09-02T16:45:16.502Z,20.00
2022-09-02T16:47:43.933Z,20.14
2022-09-02T16:50:12.693Z,20.20
2022-09-02T16:52:41.029Z,20.38
2022-09-02T16:55:08.957Z,20.47
2022-09-02T16:57:36.332Z,20.48
2022-09-02T17:00:05.121Z,20.51
2022-09-02T17:02:32.609Z,20.51
2022-09-02T17:05:00.038Z,20.45
2022-09-02T17:07:28.740Z,20.46
2022-09-02T17:09:56.117Z,20.45
2022-09-02T17:12:23.526Z,20.26
2022-09-02T17:14:51.032Z,20.30
2022-09-02T17:17:18.561Z,20.25
2022-09-02T17:19:45.950Z,20.12
2022-09-02T17:22:13.344Z,20.07
2022-09-02T17:24:42.279Z,19.96
2022-09-02T17:27:10.091Z,19.90
2022-09-02T17:29:53.620Z,19.86
2022-09-02T17:32:21.190Z,19.68
2022-09-02T17:34:50.651Z,19.56
2022-09-02T17:37:18.105Z,19.68
2022-09-02T17:39:46.931Z,19.39
2022-09-02T17:42:13.509Z,19.35
2022-09-02T17:44:42.403Z,19.33
2022-09-02T17:47:12.367Z,19.17
2022-09-02T17:49:42.159Z,19.11
2022-09-02T17:52:09.685Z,19.17
2022-09-02T17:54:38.334Z,19.05
2022-09-02T17:57:21.505Z,18.94
2022-09-02T18:00:00.424Z,18.90
2022-09-02T18:02:41.399Z,19.02
2022-09-02T18:05:17.708Z,18.87
2022-09-02T18:07:53.672Z,18.72
2022-09-02T18:10:22.470Z,18.66
2022-09-02T18:12:51.189Z,18.75
2022-09-02T18:15:19.344Z,18.44
2022-09-02T18:17:49.224Z,18.45
2022-09-02T18:20:23.727Z,18.50
2022-09-02T18:23:18.801Z,18.56
2022-09-02T18:25:54.101Z,18.52
2022-09-02T18:28:35.639Z,18.52
2022-09-02T18:31:15.466Z,18.45
2022-09-02T18:33:57.305Z,18.48
2022-09-02T18:36:36.152Z,18.37
2022-09-02T18:39:22.696Z,18.28
2022-09-02T18:42:04.079Z,18.28
2022-09-02T18:44:40.456Z,18.39
2022-09-02T18:47:14.241Z,18.42
2022-09-02T18:49:44.453Z,18.44
2022-09-02T18:52:12.752Z,18.42
2022-09-02T18:54:46.384Z,18.34
2022-09-02T18:57:14.452Z,18.30
2022-09-02T18:59:48.821Z,18.50
2022-09-02T19:02:23.946Z,18.22
2022-09-02T19:04:51.468Z,18.07
2022-09-02T19:07:38.633Z,18.23
2022-09-02T19:10:08.952Z,18.21
2022-09-02T19:12:38.041Z,18.02
2022-09-02T19:15:10.744Z,18.18
2022-09-02T19:17:40.866Z,18.29
2022-09-02T19:20:09.520Z,18.27
2022-09-02T19:22:41.140Z,18.09
2022-09-02T19:25:14.166Z,18.16
2022-09-02T19:27:44.580Z,18.14
2022-09-02T19:30:15.689Z,18.05
2022-09-02T19:32:46.369Z,17.93
2022-09-02T19:35:17.201Z,17.93
2022-09-02T19:37:47.154Z,18.04
2022-09-02T19:40:17.152Z,18.08
2022-09-02T19:42:46.073Z,18.23
2022-09-02T19:45:16.645Z,18.24
2022-09-02T19:48:06.192Z,18.04
2022-09-02T19:50:33.024Z,18.06
2022-09-02T19:53:00.605Z,18.07
2022-09-02T19:55:28.259Z,18.02
2022-09-02T19:57:55.776Z,18.03
2022-09-02T20:00:24.568Z,17.94
2022-09-02T20:02:51.940Z,18.06
2022-09-02T20:05:20.315Z,17.92
2022-09-02T20:07:48.475Z,17.91
2022-09-02T20:10:17.030Z,17.84
2022-09-02T20:12:49.231Z,17.79
2022-09-02T20:15:17.249Z,17.84
2022-09-02T20:17:46.009Z,17.87
2022-09-02T20:20:18.177Z,17.61
2022-09-02T20:22:48.494Z,17.64
2022-09-02T20:25:16.645Z,17.60
2022-09-02T20:28:02.102Z,17.37
2022-09-02T20:30:34.239Z,17.33
2022-09-02T20:33:13.624Z,17.42
2022-09-02T20:35:52.888Z,17.18
2022-09-02T20:38:37.639Z,17.19
2022-09-02T20:41:10.771Z,17.05
2022-09-02T20:43:52.643Z,17.02
2022-09-02T20:46:47.810Z,17.18
2022-09-02T20:49:33.398Z,17.06
2022-09-02T20:52:05.539Z,16.84
2022-09-02T20:54:41.129Z,16.78
2022-09-02T20:57:25.245Z,16.72
2022-09-02T21:00:03.398Z,17.09
2022-09-02T21:02:36.779Z,17.27
2022-09-02T21:05:13.055Z,17.11
2022-09-02T21:07:45.505Z,17.09
2022-09-02T21:10:18.095Z,17.10
2022-09-02T21:12:51.625Z,17.01
2022-09-02T21:15:27.190Z,16.98
2022-09-02T21:17:59.845Z,16.88
2022-09-02T21:20:39.309Z,17.01
2022-09-02T21:23:11.893Z,16.95
2022-09-02T21:25:52.127Z,16.84
2022-09-02T21:28:24.336Z,16.97
2022-09-02T21:30:58.936Z,16.91
2022-09-02T21:33:29.072Z,16.81
2022-09-02T21:35:59.844Z,16.63
2022-09-02T21:38:33.884Z,16.58
2022-09-02T21:41:10.896Z,16.57
2022-09-02T21:43:49.131Z,16.38
2022-09-02T21:46:26.925Z,16.30
2022-09-02T21:49:01.759Z,16.22
2022-09-02T21:51:35.884Z,16.27
2022-09-02T21:54:25.060Z,16.39
2022-09-02T21:57:06.930Z,16.08
2022-09-02T22:00:01.183Z,16.07
2022-09-02T22:02:38.721Z,16.16
2022-09-02T22:05:16.409Z,16.12
2022-09-02T22:07:50.410Z,15.89
2022-09-02T22:10:28.658Z,16.04
2022-09-02T22:13:01.194Z,16.17
2022-09-02T22:15:37.519Z,15.81
2022-09-02T22:18:17.880Z,15.73
2022-09-02T22:20:45.891Z,15.64
2022-09-02T22:23:23.468Z,15.63
2022-09-02T22:25:52.709Z,15.71
2022-09-02T22:28:25.852Z,15.50
2022-09-02T22:30:58.078Z,15.45
2022-09-02T22:33:31.959Z,15.43
2022-09-02T22:36:05.175Z,15.27
2022-09-02T22:38:41.008Z,15.09
2022-09-02T22:41:19.953Z,15.11
2022-09-02T22:43:53.818Z,15.06
2022-09-02T22:46:43.271Z,15.12
2022-09-02T22:49:31.136Z,14.91
2022-09-02T22:52:23.573Z,14.75
2022-09-02T22:54:52.326Z,14.64
2022-09-02T22:57:33.556Z,14.55
2022-09-02T23:00:05.484Z,14.55
2022-09-02T23:02:37.680Z,14.52
2022-09-02T23:05:33.429Z,14.36
2022-09-02T23:08:00.961Z,14.20
2022-09-02T23:10:29.783Z,14.20
2022-09-02T23:13:04.163Z,14.49
2022-09-02T23:15:37.795Z,14.38
2022-09-02T23:18:11.466Z,14.14
2022-09-02T23:20:48.329Z,14.26
2022-09-02T23:23:26.936Z,14.11
2022-09-02T23:26:09.903Z,14.10
2022-09-02T23:28:55.574Z,14.12
2022-09-02T23:31:31.249Z,14.03
2022-09-02T23:34:11.782Z,13.80
2022-09-02T23:36:49.268Z,13.90
2022-09-02T23:39:43.592Z,14.33
2022-09-02T23:42:13.711Z,14.53
2022-09-02T23:44:42.201Z,14.48
2022-09-02T23:47:23.828Z,14.64
2022-09-02T23:50:02.952Z,14.59
2022-09-02T23:52:43.167Z,14.54
2022-09-02T23:55:21.641Z,14.47
2022-09-02T23:58:06.350Z,14.42
